Time;durP1;ratioP1;P1;durP2;ratioP2;P2;SDS_P1;SDS_P2;PMS_P1;PMS_P2;Temp;Humidity;BMP_temperature;BMP_pressure;BME280_temperature;BME280_humidity;BME280_pressure;Samples;Min_cycle;Max_cycle;Signal;HPM_P1;HPM_P2
2023/12/07 00:01:34;;;;;;;7.28;2.33;;;;;;;5.41;100.00;100092.56;5032620;28;20017;-86
2023/12/07 00:03:59;;;;;;;10.10;2.88;;;;;;;5.44;100.00;100105.25;5032570;28;20029;-86
2023/12/07 00:06:25;;;;;;;11.50;2.95;;;;;;;5.40;100.00;100101.16;5032204;28;20036;-86
2023/12/07 00:08:50;;;;;;;11.93;2.63;;;;;;;5.42;100.00;100099.38;5032571;28;20053;-86
2023/12/07 00:11:15;;;;;;;11.38;2.85;;;;;;;5.48;100.00;100088.84;5032474;28;20507;-86
2023/12/07 00:13:41;;;;;;;13.45;2.95;;;;;;;5.53;100.00;100086.09;5049427;28;20033;-86
2023/12/07 00:16:06;;;;;;;7.35;2.60;;;;;;;5.49;100.00;100090.53;5051766;28;20499;-86
2023/12/07 00:18:32;;;;;;;9.80;2.80;;;;;;;5.49;100.00;100082.84;5036774;28;20041;-86
2023/12/07 00:20:57;;;;;;;8.13;2.50;;;;;;;5.49;100.00;100069.22;5045818;28;20108;-86
2023/12/07 00:23:22;;;;;;;9.10;2.90;;;;;;;5.48;100.00;100063.25;5040216;28;20064;-87
2023/12/07 00:25:49;;;;;;;12.00;3.90;;;;;;;5.48;100.00;100065.00;5051874;28;20053;-89
2023/12/07 00:28:14;;;;;;;6.43;2.80;;;;;;;5.55;100.00;100059.53;5044058;28;20558;-87
2023/12/07 00:30:42;;;;;;;7.75;3.58;;;;;;;5.62;100.00;100059.28;5043094;28;20036;-87
2023/12/07 00:33:07;;;;;;;10.00;2.88;;;;;;;5.49;100.00;100054.69;5030303;28;20056;-86
2023/12/07 00:35:33;;;;;;;9.70;3.08;;;;;;;5.56;100.00;100045.03;5031663;28;20018;-87
2023/12/07 00:37:58;;;;;;;17.10;3.60;;;;;;;5.58;100.00;100049.19;5032074;28;20484;-87
2023/12/07 00:40:24;;;;;;;7.05;2.90;;;;;;;5.58;100.00;100044.06;5042986;28;20025;-87
2023/12/07 00:42:50;;;;;;;8.60;3.03;;;;;;;5.60;100.00;100048.28;5052312;28;20025;-87
2023/12/07 00:45:15;;;;;;;9.07;2.97;;;;;;;5.55;100.00;100035.69;5051599;28;20032;-86
2023/12/07 00:47:40;;;;;;;12.77;3.85;;;;;;;5.54;100.00;100028.91;5038880;28;20388;-86
2023/12/07 00:50:06;;;;;;;13.68;4.75;;;;;;;5.54;100.00;100027.19;5046429;28;20021;-86
2023/12/07 00:52:32;;;;;;;11.35;3.30;;;;;;;5.50;100.00;100023.06;5042352;28;20025;-86
2023/12/07 00:54:57;;;;;;;8.55;3.58;;;;;;;5.52;100.00;100023.84;5037946;28;20096;-86
2023/12/07 00:57:22;;;;;;;11.88;3.60;;;;;;;5.56;100.00;100020.25;5051745;28;20025;-86
2023/12/07 00:59:48;;;;;;;9.10;3.20;;;;;;;5.70;100.00;100027.31;5049225;28;20037;-87
2023/12/07 01:02:13;;;;;;;12.45;3.20;;;;;;;5.64;100.00;100014.81;5041681;28;20033;-86
2023/12/07 01:04:39;;;;;;;9.75;3.20;;;;;;;5.58;100.00;100018.47;5051579;28;20021;-87
2023/12/07 01:07:04;;;;;;;13.82;3.83;;;;;;;5.63;100.00;99995.22;5051542;28;20082;-87
2023/12/07 01:09:30;;;;;;;14.18;3.25;;;;;;;5.67;100.00;99999.31;5038315;28;20155;-86
2023/12/07 01:11:55;;;;;;;12.38;3.63;;;;;;;5.74;100.00;99992.19;5036528;28;20094;-87
2023/12/07 01:14:21;;;;;;;14.70;3.38;;;;;;;5.60;100.00;99987.66;5035851;28;20505;-87
2023/12/07 01:16:46;;;;;;;17.60;3.63;;;;;;;5.63;100.00;99991.81;5036083;28;20025;-87
2023/12/07 01:19:14;;;;;;;10.68;3.50;;;;;;;5.71;100.00;99982.09;5035220;28;20029;-87
2023/12/07 01:21:42;;;;;;;11.13;3.75;;;;;;;5.64;100.00;99981.53;5040865;28;20119;-87
2023/12/07 01:24:08;;;;;;;16.02;3.42;;;;;;;5.61;100.00;99980.81;5052386;28;20051;-87
2023/12/07 01:26:34;;;;;;;14.95;3.20;;;;;;;5.62;100.00;99979.94;5051010;28;20471;-88
2023/12/07 01:28:59;;;;;;;12.63;2.97;;;;;;;5.64;100.00;99978.13;5041500;28;20526;-88
2023/12/07 01:31:24;;;;;;;7.03;3.15;;;;;;;5.65;100.00;99972.94;5054023;28;20547;-87
2023/12/07 01:33:50;;;;;;;13.98;3.63;;;;;;;5.54;100.00;99965.75;5055249;28;20383;-87
2023/12/07 01:36:15;;;;;;;15.23;4.32;;;;;;;5.62;100.00;99973.06;5055309;28;20028;-87
2023/12/07 01:38:41;;;;;;;14.52;4.13;;;;;;;5.57;100.00;99965.59;5055320;28;20036;-86
2023/12/07 01:41:06;;;;;;;13.15;3.78;;;;;;;5.66;100.00;99958.44;5054149;28;20439;-87
2023/12/07 01:43:31;;;;;;;13.98;3.58;;;;;;;5.65;100.00;99947.31;5046868;28;20471;-88
2023/12/07 01:45:58;;;;;;;17.55;4.65;;;;;;;5.65;100.00;99947.31;5054983;28;20120;-89
2023/12/07 01:48:26;;;;;;;24.10;5.47;;;;;;;5.63;100.00;99943.19;5055026;28;20033;-89
2023/12/07 01:50:53;;;;;;;27.27;5.07;;;;;;;5.62;100.00;99933.84;5047308;28;20511;-88
2023/12/07 01:53:19;;;;;;;15.40;4.18;;;;;;;5.63;100.00;99918.41;5050503;28;20069;-89
2023/12/07 01:55:45;;;;;;;14.18;4.18;;;;;;;5.60;100.00;99913.44;5043051;28;20391;-88
2023/12/07 01:58:11;;;;;;;9.82;3.65;;;;;;;5.76;100.00;99905.88;5044022;28;20021;-89
2023/12/07 02:00:36;;;;;;;15.18;4.05;;;;;;;5.70;100.00;99893.34;5042546;28;20131;-88
2023/12/07 02:03:05;;;;;;;13.18;4.13;;;;;;;5.71;100.00;99895.84;5054674;28;20029;-88
2023/12/07 02:05:32;;;;;;;14.20;3.50;;;;;;;5.68;100.00;99902.84;5053772;28;20556;-88
2023/12/07 02:07:58;;;;;;;8.70;3.90;;;;;;;5.78;100.00;99906.66;5052856;28;20025;-88
2023/12/07 02:10:24;;;;;;;12.23;3.90;;;;;;;5.74;100.00;99894.88;5048550;28;20105;-88
2023/12/07 02:12:51;;;;;;;9.88;3.95;;;;;;;5.74;100.00;99877.78;5037783;28;20021;-88
2023/12/07 02:15:17;;;;;;;7.57;4.85;;;;;;;5.75;100.00;99881.16;5045675;28;20021;-88
2023/12/07 02:17:57;;;;;;;12.30;4.60;;;;;;;5.73;100.00;99893.22;5054315;28;20483;-88
2023/12/07 02:20:33;;;;;;;11.68;4.10;;;;;;;5.75;100.00;99892.22;5051485;28;20444;-88
2023/12/07 02:23:04;;;;;;;9.73;4.50;;;;;;;5.77;100.00;99879.38;5042375;28;20100;-88
2023/12/07 02:25:37;;;;;;;11.88;4.47;;;;;;;5.82;100.00;99879.97;5036175;28;20038;-88
2023/12/07 02:28:03;;;;;;;14.18;4.47;;;;;;;5.85;100.00;99874.72;5033841;28;20040;-89
2023/12/07 02:30:28;;;;;;;7.97;5.22;;;;;;;5.86;100.00;99868.69;5045387;28;20029;-89
2023/12/07 02:32:53;;;;;;;12.35;4.85;;;;;;;5.91;100.00;99874.44;5043567;28;20021;-89
2023/12/07 02:35:19;;;;;;;11.18;5.05;;;;;;;5.82;100.00;99871.47;5054037;28;20575;-88
2023/12/07 02:37:48;;;;;;;8.20;4.32;;;;;;;5.91;100.00;99865.94;5036560;28;20034;-88
2023/12/07 02:40:27;;;;;;;14.82;5.57;;;;;;;5.98;100.00;99863.03;5033945;28;20036;-88
2023/12/07 02:42:53;;;;;;;8.60;4.78;;;;;;;5.93;100.00;99864.94;5033410;28;20128;-88
2023/12/07 02:45:19;;;;;;;12.15;4.95;;;;;;;5.98;100.00;99863.03;5033906;28;20021;-89
2023/12/07 02:47:45;;;;;;;10.75;4.53;;;;;;;5.99;100.00;99853.59;5034087;28;20025;-88
2023/12/07 02:50:11;;;;;;;10.70;5.40;;;;;;;5.99;100.00;99851.88;5053318;28;20017;-89
2023/12/07 02:52:37;;;;;;;12.70;5.35;;;;;;;6.08;100.00;99847.22;5050835;28;20032;-88
2023/12/07 02:55:02;;;;;;;7.38;5.03;;;;;;;6.12;100.00;99841.03;5034740;28;20383;-89
2023/12/07 02:57:29;;;;;;;11.80;5.68;;;;;;;6.08;100.00;99848.06;5038571;28;20107;-88
2023/12/07 02:59:55;;;;;;;8.90;4.75;;;;;;;6.17;100.00;99837.38;5033688;28;20114;-88
2023/12/07 03:02:20;;;;;;;13.02;4.75;;;;;;;6.19;100.00;99840.69;5033767;28;20376;-88
2023/12/07 03:04:46;;;;;;;7.97;4.57;;;;;;;6.10;100.00;99835.19;5033702;28;20018;-88
2023/12/07 03:07:11;;;;;;;9.52;4.30;;;;;;;6.21;100.00;99838.03;5033531;28;20480;-88
2023/12/07 03:09:36;;;;;;;10.25;3.90;;;;;;;6.18;100.00;99827.94;5033582;28;20380;-88
2023/12/07 03:12:02;;;;;;;9.00;3.92;;;;;;;6.23;100.00;99836.22;5032901;28;20025;-88
2023/12/07 03:14:27;;;;;;;6.68;4.03;;;;;;;6.25;100.00;99833.59;5033456;28;20045;-88
2023/12/07 03:16:53;;;;;;;8.13;4.10;;;;;;;6.30;100.00;99814.50;5033342;28;20037;-88
2023/12/07 03:19:18;;;;;;;8.95;4.07;;;;;;;6.33;100.00;99816.91;5033307;28;20029;-88
2023/12/07 03:21:44;;;;;;;8.18;3.80;;;;;;;6.31;100.00;99811.03;5033161;28;20022;-88
2023/12/07 03:24:10;;;;;;;4.90;3.22;;;;;;;6.44;100.00;99803.59;5032913;28;20053;-88
2023/12/07 03:26:36;;;;;;;4.72;3.28;;;;;;;6.38;100.00;99788.50;5043495;28;20044;-88
2023/12/07 03:29:02;;;;;;;4.40;2.58;;;;;;;6.39;100.00;99785.88;5033213;28;20113;-88
2023/12/07 03:31:28;;;;;;;8.82;3.00;;;;;;;6.49;100.00;99785.41;5032963;28;20453;-88
2023/12/07 03:33:56;;;;;;;13.50;3.00;;;;;;;6.45;100.00;99779.59;5032896;28;20021;-88
2023/12/07 03:36:23;;;;;;;7.13;2.83;;;;;;;6.49;100.00;99785.41;5031305;28;20432;-88
2023/12/07 03:38:49;;;;;;;4.50;2.72;;;;;;;6.54;100.00;99778.31;5032897;28;20026;-88
2023/12/07 03:41:15;;;;;;;4.57;2.17;;;;;;;6.58;100.00;99770.38;5036287;28;20025;-88
2023/12/07 03:43:40;;;;;;;2.80;2.00;;;;;;;6.56;100.00;99766.22;5047640;28;20537;-88
2023/12/07 03:46:08;;;;;;;4.15;1.85;;;;;;;6.65;100.00;99755.47;5039494;28;20075;-87
2023/12/07 03:48:34;;;;;;;6.35;1.80;;;;;;;6.58;100.00;99746.44;5033373;28;20032;-88
2023/12/07 03:51:00;;;;;;;3.78;1.88;;;;;;;6.58;100.00;99749.00;5049196;28;20029;-88
2023/12/07 03:53:26;;;;;;;3.40;1.80;;;;;;;6.57;100.00;99725.13;5049521;28;20025;-88
2023/12/07 03:55:52;;;;;;;2.33;1.73;;;;;;;6.57;100.00;99739.69;5032700;28;20476;-88
2023/12/07 03:58:17;;;;;;;3.92;1.98;;;;;;;6.54;100.00;99727.84;5035258;28;20159;-88
2023/12/07 04:00:43;;;;;;;3.42;1.75;;;;;;;6.60;100.00;99729.25;5048899;28;20111;-88
2023/12/07 04:03:09;;;;;;;4.22;1.90;;;;;;;6.70;100.00;99727.84;5049099;28;20033;-88
2023/12/07 04:05:34;;;;;;;2.22;1.48;;;;;;;6.71;100.00;99729.53;5032432;28;20380;-88
2023/12/07 04:07:59;;;;;;;2.20;1.48;;;;;;;6.67;100.00;99727.22;5044565;28;20095;-88
2023/12/07 04:10:25;;;;;;;8.82;1.40;;;;;;;6.62;100.00;99732.56;5047901;28;20102;-88
2023/12/07 04:12:52;;;;;;;3.13;1.33;;;;;;;6.65;100.00;99730.66;5031770;28;20048;-88
2023/12/07 04:15:18;;;;;;;6.35;2.47;;;;;;;6.68;100.00;99728.84;5032398;28;20044;-88
2023/12/07 04:17:43;;;;;;;3.42;1.95;;;;;;;6.76;100.00;99739.56;5043564;28;20025;-88
2023/12/07 04:20:09;;;;;;;2.03;1.17;;;;;;;6.64;100.00;99733.31;5050513;28;20033;-88
2023/12/07 04:22:35;;;;;;;1.92;0.90;;;;;;;6.67;100.00;99743.41;5033622;28;20412;-88
2023/12/07 04:25:00;;;;;;;1.88;1.17;;;;;;;6.72;100.00;99731.19;5047908;28;20479;-88
2023/12/07 04:27:25;;;;;;;1.13;0.90;;;;;;;6.63;100.00;99732.50;5050328;28;20032;-87
2023/12/07 04:29:50;;;;;;;2.85;1.00;;;;;;;6.66;100.00;99731.50;5048357;28;20502;-88
2023/12/07 04:32:16;;;;;;;3.40;0.82;;;;;;;6.69;100.00;99743.34;5032885;28;20387;-88
2023/12/07 04:34:41;;;;;;;1.58;0.65;;;;;;;6.71;100.00;99744.09;5041760;28;20028;-88
2023/12/07 04:37:06;;;;;;;1.65;0.93;;;;;;;6.74;100.00;99726.78;5039580;28;20051;-88
2023/12/07 04:39:32;;;;;;;0.93;0.73;;;;;;;6.70;100.00;99727.03;5031916;28;20060;-88
2023/12/07 04:41:57;;;;;;;3.45;0.85;;;;;;;6.81;100.00;99733.25;5042339;28;20037;-88
2023/12/07 04:44:25;;;;;;;2.28;1.00;;;;;;;6.80;100.00;99726.50;5032238;28;20034;-88
2023/12/07 04:46:50;;;;;;;1.67;0.63;;;;;;;6.84;100.00;99730.53;5036167;28;20021;-88
2023/12/07 04:49:16;;;;;;;0.70;0.52;;;;;;;6.74;100.00;99734.50;5049669;28;20398;-89
2023/12/07 04:51:46;;;;;;;2.35;0.90;;;;;;;6.84;100.00;99740.78;5033654;28;20033;-88
2023/12/07 04:54:11;;;;;;;0.98;0.52;;;;;;;6.82;100.00;99736.66;5040329;28;20036;-88
2023/12/07 04:56:37;;;;;;;0.80;0.52;;;;;;;6.86;100.00;99726.16;5051594;28;20025;-88
2023/12/07 04:59:02;;;;;;;2.03;0.65;;;;;;;6.88;100.00;99722.66;5044279;28;20028;-88
2023/12/07 05:01:27;;;;;;;4.60;0.52;;;;;;;6.81;100.00;99730.69;5036602;28;20418;-88
2023/12/07 05:03:53;;;;;;;2.78;0.50;;;;;;;6.75;100.00;99725.88;5039454;28;20415;-87
2023/12/07 05:06:18;;;;;;;0.57;0.57;;;;;;;6.79;100.00;99714.56;5036249;28;20033;-88
2023/12/07 05:08:43;;;;;;;9.38;0.80;;;;;;;6.74;100.00;99721.66;5041090;28;20035;-88
2023/12/07 05:11:09;;;;;;;2.47;0.68;;;;;;;6.88;100.00;99720.09;5040142;28;20491;-88
2023/12/07 05:13:35;;;;;;;1.38;0.65;;;;;;;6.94;100.00;99723.16;5048572;28;20383;-87
2023/12/07 05:16:01;;;;;;;1.60;0.70;;;;;;;6.79;100.00;99721.44;5051229;28;20029;-88
2023/12/07 05:18:26;;;;;;;1.73;0.65;;;;;;;6.82;100.00;99722.06;5049575;28;20044;-88
2023/12/07 05:20:51;;;;;;;2.22;0.70;;;;;;;6.81;100.00;99720.44;5037292;28;20033;-88
2023/12/07 05:23:17;;;;;;;0.68;0.43;;;;;;;6.88;100.00;99725.22;5041468;28;20087;-88
2023/12/07 05:25:43;;;;;;;2.55;0.43;;;;;;;6.88;100.00;99714.97;5033406;28;20025;-88
2023/12/07 05:28:08;;;;;;;3.67;0.50;;;;;;;6.91;100.00;99704.56;5043775;28;20115;-88
2023/12/07 05:30:35;;;;;;;3.33;0.65;;;;;;;6.90;100.00;99697.75;5033419;28;20029;-88
2023/12/07 05:33:01;;;;;;;1.17;0.35;;;;;;;6.79;100.00;99701.72;5033421;28;20076;-87
2023/12/07 05:35:26;;;;;;;0.90;0.50;;;;;;;6.80;100.00;99693.16;5032773;28;20404;-87
2023/12/07 05:37:52;;;;;;;0.77;0.40;;;;;;;6.95;100.00;99695.75;5042130;28;20028;-87
2023/12/07 05:40:18;;;;;;;1.63;0.30;;;;;;;6.73;100.00;99693.53;5049392;28;20033;-88
2023/12/07 05:42:43;;;;;;;0.20;0.20;;;;;;;6.81;100.00;99689.66;5040061;28;20029;-87
2023/12/07 05:45:10;;;;;;;1.13;0.40;;;;;;;6.75;100.00;99694.28;5046481;28;20033;-87
2023/12/07 05:47:36;;;;;;;1.90;0.30;;;;;;;6.80;100.00;99680.31;5047544;28;20028;-88
2023/12/07 05:50:03;;;;;;;0.75;0.38;;;;;;;6.81;100.00;99674.28;5033126;28;20104;-87
2023/12/07 05:52:28;;;;;;;5.35;0.40;;;;;;;6.78;100.00;99671.88;5040490;28;20025;-87
2023/12/07 05:54:53;;;;;;;1.20;0.30;;;;;;;6.89;100.00;99661.03;5041806;28;20032;-87
2023/12/07 05:57:19;;;;;;;1.00;0.32;;;;;;;6.88;100.00;99655.97;5034910;28;20037;-87
2023/12/07 05:59:44;;;;;;;3.17;0.50;;;;;;;6.82;100.00;99660.53;5035865;28;20026;-87
2023/12/07 06:02:09;;;;;;;0.45;0.30;;;;;;;6.75;100.00;99659.19;5035850;28;20112;-87
2023/12/07 06:04:35;;;;;;;1.77;0.50;;;;;;;6.74;100.00;99657.56;5036685;28;20444;-88
2023/12/07 06:07:00;;;;;;;0.73;0.50;;;;;;;6.74;100.00;99657.56;5045087;28;20037;-87
2023/12/07 06:09:26;;;;;;;0.47;0.22;;;;;;;6.71;100.00;99642.34;5037946;28;20500;-87
2023/12/07 06:11:51;;;;;;;2.05;0.50;;;;;;;6.72;100.00;99643.16;5035134;28;20059;-87
2023/12/07 06:14:16;;;;;;;0.45;0.32;;;;;;;6.70;100.00;99638.09;5034687;28;20085;-87
2023/12/07 06:16:42;;;;;;;0.35;0.30;;;;;;;6.73;100.00;99627.72;5034316;28;20022;-87
2023/12/07 06:19:07;;;;;;;1.80;0.40;;;;;;;6.73;100.00;99624.28;5045405;28;20037;-87
2023/12/07 06:21:33;;;;;;;1.23;0.38;;;;;;;6.80;100.00;99625.59;5046890;28;20032;-88
2023/12/07 06:24:01;;;;;;;0.70;0.40;;;;;;;6.75;100.00;99630.16;5051297;28;20032;-87
2023/12/07 06:26:26;;;;;;;0.47;0.47;;;;;;;6.77;100.00;99634.31;5054064;28;20032;-87
2023/12/07 06:28:52;;;;;;;1.25;0.40;;;;;;;6.71;100.00;99633.81;5034660;28;20025;-87
2023/12/07 06:31:21;;;;;;;1.95;0.40;;;;;;;6.75;100.00;99618.16;5035249;28;20032;-87
2023/12/07 06:33:47;;;;;;;1.38;0.60;;;;;;;6.77;100.00;99624.03;5035870;28;20057;-87
2023/12/07 06:36:21;;;;;;;0.60;0.40;;;;;;;6.83;100.00;99628.84;5040497;28;20037;-87
2023/12/07 06:38:47;;;;;;;0.80;0.60;;;;;;;6.79;100.00;99617.09;5052491;28;20025;-87
2023/12/07 06:41:13;;;;;;;1.65;0.50;;;;;;;6.78;100.00;99609.47;5042536;28;20509;-87
2023/12/07 06:43:38;;;;;;;1.95;0.50;;;;;;;6.79;100.00;99614.53;5054035;28;20032;-87
2023/12/07 06:46:03;;;;;;;1.70;0.50;;;;;;;6.85;100.00;99608.22;5053812;28;20025;-87
2023/12/07 06:48:29;;;;;;;3.63;0.90;;;;;;;6.85;100.00;99603.09;5046242;28;20033;-87
2023/12/07 06:50:54;;;;;;;3.50;0.60;;;;;;;6.83;100.00;99603.19;5034086;28;20037;-87
2023/12/07 06:53:19;;;;;;;2.42;0.47;;;;;;;6.81;100.00;99602.44;5041890;28;20025;-87
2023/12/07 06:55:45;;;;;;;0.93;0.70;;;;;;;6.82;100.00;99608.41;5034890;28;20031;-87
2023/12/07 06:58:10;;;;;;;1.58;0.70;;;;;;;6.87;100.00;99603.84;5032564;28;20033;-87
2023/12/07 07:00:36;;;;;;;2.75;0.60;;;;;;;6.84;100.00;99601.47;5034952;28;20025;-87
2023/12/07 07:03:01;;;;;;;0.98;0.50;;;;;;;6.90;100.00;99600.28;5036077;28;20021;-87
2023/12/07 07:05:27;;;;;;;1.15;0.60;;;;;;;6.89;100.00;99588.38;5051423;28;20028;-87
2023/12/07 07:07:53;;;;;;;4.57;0.70;;;;;;;6.93;100.00;99592.44;5039059;28;20074;-87
2023/12/07 07:10:18;;;;;;;1.13;0.70;;;;;;;6.92;100.00;99593.31;5046632;28;20414;-87
2023/12/07 07:12:43;;;;;;;2.55;0.70;;;;;;;6.92;100.00;99588.19;5051614;28;20383;-87
2023/12/07 07:15:09;;;;;;;1.92;0.88;;;;;;;6.96;100.00;99584.56;5051523;28;20079;-87
2023/12/07 07:17:34;;;;;;;2.30;0.80;;;;;;;6.94;100.00;99587.19;5046577;28;20278;-87
2023/12/07 07:20:00;;;;;;;5.45;1.05;;;;;;;6.96;100.00;99585.38;5044349;28;20017;-87
2023/12/07 07:22:25;;;;;;;2.55;0.73;;;;;;;6.91;100.00;99566.84;5051464;28;20479;-87
2023/12/07 07:24:50;;;;;;;0.93;0.70;;;;;;;6.93;100.00;99572.72;5050943;28;20422;-87
2023/12/07 07:27:16;;;;;;;3.42;0.80;;;;;;;6.99;100.00;99572.38;5035129;28;20438;-86
2023/12/07 07:29:41;;;;;;;2.40;0.70;;;;;;;6.95;100.00;99567.50;5034096;28;20025;-86
2023/12/07 07:32:06;;;;;;;3.58;0.88;;;;;;;6.95;100.00;99570.91;5038193;28;20128;-87
2023/12/07 07:34:32;;;;;;;3.22;0.68;;;;;;;7.03;100.00;99576.44;5032725;28;20124;-87
2023/12/07 07:36:57;;;;;;;2.35;0.77;;;;;;;7.06;100.00;99565.16;5034019;28;20032;-87
2023/12/07 07:39:23;;;;;;;1.95;0.80;;;;;;;6.99;100.00;99568.97;5033837;28;20040;-87
2023/12/07 07:41:48;;;;;;;3.88;1.20;;;;;;;6.93;100.00;99567.59;5033994;28;20025;-87
2023/12/07 07:44:13;;;;;;;1.13;0.73;;;;;;;6.93;100.00;99559.09;5033859;28;20076;-87
2023/12/07 07:46:41;;;;;;;2.80;1.35;;;;;;;6.97;100.00;99555.41;5050287;28;20060;-87
2023/12/07 07:49:06;;;;;;;2.17;0.77;;;;;;;6.93;100.00;99553.97;5036571;28;20028;-87
2023/12/07 07:51:32;;;;;;;4.32;0.90;;;;;;;6.98;100.00;99555.34;5052376;28;20025;-86
2023/12/07 07:53:59;;;;;;;3.47;0.88;;;;;;;7.02;100.00;99538.88;5052527;28;20031;-86
2023/12/07 07:56:24;;;;;;;1.58;0.70;;;;;;;7.03;100.00;99552.50;5043640;28;20025;-87
2023/12/07 07:58:49;;;;;;;3.17;1.20;;;;;;;6.93;100.00;99533.44;5032466;28;20029;-86
2023/12/07 08:01:15;;;;;;;5.82;1.30;;;;;;;6.95;100.00;99536.72;5032436;28;20025;-87
2023/12/07 08:03:40;;;;;;;1.73;1.00;;;;;;;6.94;100.00;99533.31;5044174;28;20035;-87
2023/12/07 08:06:06;;;;;;;3.30;1.10;;;;;;;6.98;100.00;99536.56;5052085;28;20037;-86
2023/12/07 08:08:32;;;;;;;2.50;0.93;;;;;;;6.98;100.00;99526.31;5043033;28;20036;-86
2023/12/07 08:10:57;;;;;;;3.55;1.23;;;;;;;6.98;100.00;99523.72;5034046;28;20017;-87
2023/12/07 08:13:23;;;;;;;2.08;1.27;;;;;;;6.96;100.00;99523.00;5038373;28;20079;-86
2023/12/07 08:15:48;;;;;;;2.75;0.93;;;;;;;6.85;100.00;99511.59;5042303;28;20040;-87
2023/12/07 08:18:14;;;;;;;3.80;1.77;;;;;;;6.89;100.00;99526.81;5043100;28;20087;-86
2023/12/07 08:20:39;;;;;;;1.58;0.82;;;;;;;6.95;100.00;99514.47;5035066;28;20025;-86
2023/12/07 08:23:05;;;;;;;4.22;1.08;;;;;;;6.95;100.00;99517.03;5035805;28;20116;-87
2023/12/07 08:25:31;;;;;;;4.30;1.00;;;;;;;6.96;100.00;99510.16;5041064;28;20092;-85
2023/12/07 08:27:57;;;;;;;2.15;1.00;;;;;;;6.98;100.00;99505.78;5031902;28;20387;-86
2023/12/07 08:30:23;;;;;;;1.33;0.90;;;;;;;7.06;100.00;99494.13;5034174;28;20068;-86
2023/12/07 08:32:48;;;;;;;1.80;0.65;;;;;;;7.03;100.00;99499.47;5033671;28;20578;-86
2023/12/07 08:35:13;;;;;;;3.28;0.80;;;;;;;7.07;100.00;99494.97;5038405;28;20033;-87
2023/12/07 08:37:39;;;;;;;1.38;0.75;;;;;;;6.99;100.00;99481.75;5046591;28;20514;-86
2023/12/07 08:40:06;;;;;;;0.88;0.75;;;;;;;6.99;100.00;99481.75;5040672;28;20025;-88
2023/12/07 08:42:31;;;;;;;2.35;0.80;;;;;;;7.11;100.00;99486.19;5032845;28;20037;-86
2023/12/07 08:44:57;;;;;;;3.35;1.30;;;;;;;7.03;100.00;99475.53;5044748;28;20120;-86
2023/12/07 08:47:22;;;;;;;3.72;1.15;;;;;;;7.06;100.00;99470.22;5031163;28;20040;-86
2023/12/07 08:49:48;;;;;;;4.55;1.02;;;;;;;6.98;100.00;99472.44;5031301;28;20136;-86
2023/12/07 08:52:13;;;;;;;3.55;0.93;;;;;;;7.05;100.00;99460.91;5034767;28;20017;-86
2023/12/07 08:54:39;;;;;;;4.15;1.38;;;;;;;7.07;100.00;99465.03;5030284;28;20058;-86
2023/12/07 08:57:04;;;;;;;5.53;1.10;;;;;;;7.08;100.00;99453.81;5038032;28;20075;-87
2023/12/07 08:59:30;;;;;;;5.20;1.30;;;;;;;7.04;100.00;99448.97;5036491;28;20048;-86
2023/12/07 09:01:56;;;;;;;9.68;2.83;;;;;;;7.07;100.00;99448.78;5042647;28;20052;-86
2023/12/07 09:04:21;;;;;;;2.17;1.05;;;;;;;6.99;100.00;99438.16;5049752;28;20037;-86
2023/12/07 09:06:46;;;;;;;3.25;1.00;;;;;;;6.97;100.00;99438.22;5048804;28;20029;-86
2023/12/07 09:09:12;;;;;;;2.05;1.00;;;;;;;6.94;100.00;99447.84;5048677;28;20029;-86
2023/12/07 09:11:37;;;;;;;4.15;1.10;;;;;;;6.88;100.00;99437.94;5035103;28;20028;-87
2023/12/07 09:14:02;;;;;;;5.57;1.33;;;;;;;6.91;100.00;99448.03;5036313;28;20387;-87
2023/12/07 09:16:28;;;;;;;3.58;1.30;;;;;;;6.98;100.00;99433.94;5050001;28;20021;-86
2023/12/07 09:18:53;;;;;;;2.78;1.20;;;;;;;6.94;100.00;99435.84;5051272;28;20025;-86
2023/12/07 09:21:19;;;;;;;4.80;1.30;;;;;;;6.98;100.00;99432.19;5045810;28;20040;-87
2023/12/07 09:23:44;;;;;;;2.67;1.20;;;;;;;6.96;100.00;99435.78;5038174;28;20128;-87
2023/12/07 09:26:10;;;;;;;4.72;1.52;;;;;;;6.82;100.00;99416.88;5032621;28;20029;-87
2023/12/07 09:28:35;;;;;;;5.63;1.23;;;;;;;6.89;100.00;99424.22;5032759;28;20030;-87
2023/12/07 09:31:01;;;;;;;8.00;1.88;;;;;;;6.87;100.00;99421.72;5050100;28;20031;-86
2023/12/07 09:33:26;;;;;;;5.85;1.95;;;;;;;6.94;100.00;99417.06;5044752;28;20029;-86
2023/12/07 09:35:52;;;;;;;5.57;1.40;;;;;;;6.95;100.00;99416.16;5041104;28;20060;-86
2023/12/07 09:38:17;;;;;;;6.82;2.15;;;;;;;6.95;100.00;99398.19;5053321;28;20033;-87
2023/12/07 09:40:43;;;;;;;4.85;1.85;;;;;;;6.79;100.00;99388.84;5039373;28;20033;-86
2023/12/07 09:43:08;;;;;;;6.07;1.50;;;;;;;6.82;100.00;99388.66;5040064;28;20052;-86
2023/12/07 09:45:34;;;;;;;8.27;1.63;;;;;;;6.86;100.00;99379.88;5035799;28;20029;-86
2023/12/07 09:48:00;;;;;;;8.73;1.40;;;;;;;6.93;100.00;99374.41;5034556;28;20451;-87
2023/12/07 09:50:30;;;;;;;3.72;1.58;;;;;;;6.92;100.00;99365.84;5042704;28;20524;-86
2023/12/07 09:52:56;;;;;;;5.40;1.75;;;;;;;6.91;100.00;99360.84;5041858;28;20448;-86
2023/12/07 09:55:22;;;;;;;6.63;1.75;;;;;;;6.92;100.00;99352.22;5040047;28;20060;-86
2023/12/07 09:57:51;;;;;;;7.20;1.45;;;;;;;6.79;100.00;99347.00;5034455;28;20053;-87
2023/12/07 10:00:17;;;;;;;5.20;1.45;;;;;;;6.80;100.00;99354.59;5034787;28;20380;-88
2023/12/07 10:02:45;;;;;;;4.20;1.58;;;;;;;6.90;100.00;99364.28;5050262;28;20032;-88
2023/12/07 10:05:16;;;;;;;8.63;1.77;;;;;;;6.77;100.00;99370.16;5054135;28;20033;-88
2023/12/07 10:07:47;;;;;;;10.13;1.60;;;;;;;6.84;100.00;99370.63;5052964;28;20028;-88
2023/12/07 10:10:16;;;;;;;6.72;1.83;;;;;;;6.74;100.00;99379.78;5043217;28;20522;-87
2023/12/07 10:12:52;;;;;;;8.50;1.90;;;;;;;6.77;100.00;99377.03;5047634;28;20044;-87
2023/12/07 10:15:19;;;;;;;7.95;2.00;;;;;;;6.83;100.00;99379.25;5034616;28;20057;-87
2023/12/07 10:17:48;;;;;;;10.15;2.30;;;;;;;6.73;100.00;99378.97;5033197;28;20033;-88
2023/12/07 10:20:18;;;;;;;5.55;2.15;;;;;;;6.66;100.00;99377.66;5034957;28;20475;-87
2023/12/07 10:22:46;;;;;;;7.43;1.55;;;;;;;6.68;100.00;99372.44;5035111;28;20109;-87
2023/12/07 10:25:11;;;;;;;8.85;2.45;;;;;;;6.64;100.00;99382.06;5035374;28;20452;-87
2023/12/07 10:27:40;;;;;;;11.50;1.98;;;;;;;6.78;100.00;99368.41;5034412;28;20112;-87
2023/12/07 10:30:08;;;;;;;6.70;1.63;;;;;;;6.60;100.00;99352.38;5034088;28;20136;-87
2023/12/07 10:32:38;;;;;;;6.65;2.15;;;;;;;6.74;100.00;99359.25;5034256;28;20109;-87
2023/12/07 10:35:06;;;;;;;9.68;2.28;;;;;;;6.69;100.00;99362.09;5033910;28;20033;-87
2023/12/07 10:37:32;;;;;;;10.77;2.08;;;;;;;6.59;100.00;99350.72;5034183;28;20037;-87
2023/12/07 10:39:57;;;;;;;10.00;2.17;;;;;;;6.64;100.00;99358.97;5034234;28;20029;-87
2023/12/07 10:42:24;;;;;;;13.23;1.98;;;;;;;6.54;100.00;99358.69;5031546;28;20071;-87
2023/12/07 10:44:57;;;;;;;12.07;2.35;;;;;;;6.49;100.00;99367.56;5033277;28;20121;-87
2023/12/07 10:47:23;;;;;;;9.48;1.98;;;;;;;6.55;100.00;99364.63;5033910;28;20033;-87
2023/12/07 10:49:54;;;;;;;9.05;1.83;;;;;;;6.59;100.00;99361.81;5033987;28;20086;-87
2023/12/07 10:52:24;;;;;;;9.68;1.83;;;;;;;6.58;100.00;99349.06;5032683;28;20024;-87
2023/12/07 10:54:49;;;;;;;9.05;1.33;;;;;;;6.50;100.00;99336.69;5032311;28;20476;-87
2023/12/07 10:57:15;;;;;;;5.90;1.63;;;;;;;6.48;100.00;99335.13;5032514;28;20061;-87
2023/12/07 10:59:44;;;;;;;9.32;1.58;;;;;;;6.66;100.00;99311.00;5033435;28;20120;-87
2023/12/07 11:02:14;;;;;;;3.75;1.50;;;;;;;6.58;100.00;99308.03;5033651;28;20021;-87
2023/12/07 11:04:41;;;;;;;5.47;1.10;;;;;;;6.61;100.00;99302.75;5033278;28;20067;-87
2023/12/07 11:07:11;;;;;;;6.30;1.30;;;;;;;6.72;100.00;99302.94;5033575;28;20036;-87
2023/12/07 11:09:44;;;;;;;6.68;1.30;;;;;;;6.65;100.00;99305.03;5033685;28;20092;-87
2023/12/07 11:12:18;;;;;;;5.57;1.40;;;;;;;6.66;100.00;99290.50;5033228;28;20126;-87
2023/12/07 11:14:43;;;;;;;3.35;1.25;;;;;;;6.67;100.00;99279.31;5033253;28;20022;-87
2023/12/07 11:17:09;;;;;;;5.72;1.83;;;;;;;6.67;100.00;99265.66;5033407;28;20036;-87
2023/12/07 11:19:44;;;;;;;2.10;0.95;;;;;;;6.59;100.00;99259.25;5033331;28;20068;-87
2023/12/07 11:22:11;;;;;;;2.53;0.88;;;;;;;6.76;100.00;99250.56;5033325;28;20037;-87
2023/12/07 11:24:37;;;;;;;3.55;0.90;;;;;;;6.68;100.00;99259.59;5032651;28;20025;-87
2023/12/07 11:27:02;;;;;;;1.77;0.70;;;;;;;6.65;100.00;99250.38;5033218;28;20036;-87